• Join FlightAware (Why Join?)
  • Login
  • US Flag 
04:54PM EDT


 

Airport Tracker/Info


-or-


 

Live Flight TrackerFlight Track Log ✈ RPA3867 ✈ 09-Jul-2013 ✈ KRAP - KDEN

Flight Track Log - Related Links

Times and Time Zones

All times are in EDT time to prevent confusion due to time zone crossing. See the RPA3867 flight status page for this flight to view local times or setup timezone preferences in your user account.

Time Position Orientation Groundspeed Altitude Reporting Facility
EDT Latitude Longitude Course Direction KTS MPH feet Rate Location/Type
10:56AM 44.0508 -103.0636 305° West 167 192 3,600  Level Denver Center
10:57AM 44.0836 -103.1281 305° West 203 234 6,300 2,220 Climbing Denver Center
10:58AM 44.0600 -103.1808 238° Southwest 234 269 8,000 2,040 Climbing Denver Center
10:59AM 43.9992 -103.1903 186° South 232 267 10,200 1,980 Climbing Denver Center
11:00AM 43.9258 -103.2006 186° South 233 268 12,100 1,740 Climbing Denver Center
11:01AM 43.8594 -103.2114 187° South 244 281 13,800 1,920 Climbing Denver Center
11:02AM 43.7811 -103.2214 185° South 251 289 16,100 1,740 Climbing Denver Center
11:03AM 43.7172 -103.2292 185° South 246 283 17,500 1,200 Climbing Denver Center
11:04AM 43.6389 -103.2425 187° South 252 290 18,700 1,200 Climbing Denver Center
11:05AM 43.5692 -103.2522 186° South 259 298 20,000 1,200 Climbing Denver Center
11:06AM 43.5006 -103.2617 186° South 259 298 21,300 1,200 Climbing Denver Center
11:07AM 43.4211 -103.2717 185° South 257 296 22,600 1,020 Climbing Denver Center
11:08AM 43.3503 -103.2808 185° South 262 302 23,500 660 Climbing Denver Center
11:09AM 43.2669 -103.2933 186° South 269 310 24,000 240 Climbing Denver Center
11:11AM 43.1853 -103.3050 186° South 304 350 24,000  Level Denver Center
11:12AM 43.0889 -103.3181 186° South 310 357 24,000  Level Denver Center
11:13AM 43.0083 -103.3292 186° South 304 350 24,000  Level Denver Center
11:14AM 42.9139 -103.3425 186° South 306 352 24,000  Level Denver Center
11:15AM 42.8314 -103.3533 186° South 311 358 24,000  Level Denver Center
11:16AM 42.7381 -103.3664 186° South 307 353 24,000  Level Denver Center
11:17AM 42.6567 -103.3767 185° South 305 351 24,000  Level Denver Center
11:18AM 42.5744 -103.3889 186° South 307 353 24,000  Level Denver Center
11:19AM 42.4786 -103.4019 186° South 308 354 24,000  Level Denver Center
11:20AM 42.3969 -103.4133 186° South 308 354 24,000  Level Denver Center
11:21AM 42.3025 -103.4256 185° South 305 351 24,000  Level Denver Center
11:22AM 42.2211 -103.4372 186° South 306 352 24,000  Level Denver Center
11:23AM 42.1242 -103.4514 186° South 310 357 24,000  Level Denver Center
11:24AM 42.0419 -103.4622 186° South 310 357 24,000  Level Denver Center
11:25AM 41.9458 -103.4750 186° South 310 357 24,000  Level Denver Center
11:26AM 41.8628 -103.4867 186° South 311 358 24,000  Level Denver Center
11:27AM 41.7672 -103.5022 187° South 310 357 24,000  Level Denver Center
11:28AM 41.6853 -103.5142 186° South 308 354 24,000  Level Denver Center
11:29AM 41.6036 -103.5250 186° South 306 352 24,000  Level Denver Center
11:30AM 41.5067 -103.5397 186° South 312 359 24,000  Level Denver Center
11:31AM 41.4258 -103.5511 186° South 307 353 24,000  Level Denver Center
11:32AM 41.3294 -103.5656 186° South 312 359 24,000  Level Denver Center
11:33AM 41.2469 -103.5778 186° South 312 359 24,000 -960 Level Denver Center
11:34AM 41.1486 -103.5928 187° South 316 364 22,000 -1,800 Descending Denver Center
11:35AM 41.0658 -103.6031 185° South 313 360 20,300 -1,800 Descending Denver Center
11:36AM 40.9731 -103.6178 187° South 304 350 18,400 -1,740 Descending Denver Center
11:37AM 40.8967 -103.6294 187° South 293 337 16,800 -1,200 Descending Denver Center
11:38AM 40.8128 -103.6617 196° South 289 333 16,000 -360 Descending Denver Center
11:39AM 40.7531 -103.7106 212° Southwest 266 306 16,100  Climbing Denver Center
11:40AM 40.6772 -103.7656 209° Southwest 276 318 16,100  Level Denver Center
11:42AM 40.6136 -103.8139 210° Southwest 276 318 16,100  Level Denver Center
11:43AM 40.5392 -103.8681 209° Southwest 274 315 16,100 -480 Level Denver Center
11:44AM 40.4767 -103.9161 210° Southwest 272 313 15,200 -1,080 Descending Denver Center
11:45AM 40.4031 -103.9694 209° Southwest 279 321 13,900 -1,080 Descending Denver Center
11:46AM 40.3369 -104.0219 211° Southwest 278 320 13,000 -480 Descending Denver Center
11:47AM 40.2858 -104.0983 229° Southwest 261 300 13,000  Level Denver Center
11:48AM 40.2122 -104.1100 187° South 285 328 13,000  Level Denver Center
11:49AM 40.1372 -104.1183 185° South 274 315 13,000  Level Denver Center
11:50AM 40.0614 -104.1436 194° South 262 302 13,000 -420 Level Denver Center
11:51AM 39.9958 -104.1817 204° Southwest 258 297 12,200 -1,080 Descending Denver Center
11:52AM 39.9625 -104.2672 243° Southwest 245 282 10,800 -1,320 Descending Denver Center
11:53AM 39.9350 -104.3492 246° West 247 284 9,500 -1,260 Descending Denver Center
11:54AM 39.9061 -104.4256 244° Southwest 224 258 8,300 -1,080 Descending Denver Center
11:55AM 39.8825 -104.4892 244° Southwest 201 231 7,300 -960 Descending Denver Center
11:56AM 39.8767 -104.5522 263° West 181 208 6,400 -900 Descending Denver Center
11:57AM 39.8772 -104.6111 271° West 154 177 5,500 -540 Descending Denver Center
11:58AM 39.8778 -104.6667 271° West 153 176 5,300 -240 Descending Denver Center
12:00PM 39.8617 -104.6732 237° Southwest  Level Estimated
12:07PM 39.8617 -104.6732 237° Southwest  Level Estimated
12:08PM 39.8617 -104.6732 237° Southwest  Level Estimated